createdAt,value
2022-10-05T00:01:53.846Z,99438.20
2022-10-05T00:05:02.046Z,99442.40
2022-10-05T00:08:19.654Z,99443.80
2022-10-05T00:11:28.254Z,99439.20
2022-10-05T00:14:38.846Z,99431.00
2022-10-05T00:17:48.309Z,99431.40
2022-10-05T00:20:56.398Z,99429.80
2022-10-05T00:24:11.364Z,99429.60
2022-10-05T00:27:24.078Z,99428.60
2022-10-05T00:30:38.724Z,99424.40
2022-10-05T00:33:46.907Z,99416.80
2022-10-05T00:36:54.971Z,99418.00
2022-10-05T00:40:03.121Z,99424.40
2022-10-05T00:43:30.429Z,99428.20
2022-10-05T00:46:53.125Z,99432.80
2022-10-05T00:50:32.521Z,99424.80
2022-10-05T00:53:49.503Z,99432.20
2022-10-05T00:57:34.378Z,99430.00
2022-10-05T01:01:00.544Z,99442.20
2022-10-05T01:04:21.021Z,99437.40
2022-10-05T01:07:41.842Z,99440.40
2022-10-05T01:11:03.570Z,99441.00
2022-10-05T01:14:23.062Z,99440.60
2022-10-05T01:17:40.685Z,99451.20
2022-10-05T01:21:04.738Z,99452.60
2022-10-05T01:24:49.547Z,99452.00
2022-10-05T01:28:08.176Z,99449.80
2022-10-05T01:31:27.728Z,99455.00
2022-10-05T01:34:42.259Z,99453.00
2022-10-05T01:38:06.275Z,99445.80
2022-10-05T01:41:31.331Z,99446.60
2022-10-05T01:44:52.272Z,99446.20
2022-10-05T01:48:10.116Z,99448.20
2022-10-05T01:51:29.705Z,99459.40
2022-10-05T01:55:01.219Z,99459.60
2022-10-05T01:58:24.757Z,99476.00
2022-10-05T02:01:46.384Z,99472.60
2022-10-05T02:05:02.559Z,99469.80
2022-10-05T02:08:23.130Z,99466.00
2022-10-05T02:11:31.120Z,99465.80
2022-10-05T02:14:43.989Z,99468.60
2022-10-05T02:17:58.227Z,99480.00
2022-10-05T02:21:07.333Z,99474.80
2022-10-05T02:24:23.817Z,99474.20
2022-10-05T02:27:42.560Z,99470.60
2022-10-05T02:30:56.880Z,99468.40
2022-10-05T02:34:30.871Z,99474.40
2022-10-05T02:37:56.078Z,99476.60
2022-10-05T02:41:13.331Z,99473.80
2022-10-05T02:44:35.069Z,99480.60
2022-10-05T02:47:53.887Z,99476.20
2022-10-05T02:51:14.927Z,99476.40
2022-10-05T02:54:42.658Z,99476.40
2022-10-05T02:57:59.644Z,99465.00
2022-10-05T03:01:17.205Z,99465.60
2022-10-05T03:04:40.120Z,99459.20
2022-10-05T03:08:00.500Z,99451.40
2022-10-05T03:11:19.630Z,99441.20
2022-10-05T03:14:40.880Z,99442.20
2022-10-05T03:18:01.329Z,99434.00
2022-10-05T03:21:24.863Z,99436.80
2022-10-05T03:25:02.333Z,99440.20
2022-10-05T03:28:20.587Z,99446.40
2022-10-05T03:31:42.157Z,99445.80
2022-10-05T03:34:58.311Z,99448.00
2022-10-05T03:38:18.005Z,99447.80
2022-10-05T03:41:38.445Z,99455.40
2022-10-05T03:44:56.636Z,99457.40
2022-10-05T03:48:11.524Z,99461.40
2022-10-05T03:51:31.714Z,99467.60
2022-10-05T03:54:45.976Z,99455.40
2022-10-05T03:57:58.680Z,99455.40
2022-10-05T04:01:13.590Z,99462.40
2022-10-05T04:04:36.357Z,99455.00
2022-10-05T04:07:52.504Z,99464.80
2022-10-05T04:11:06.226Z,99452.80
2022-10-05T04:14:20.537Z,99462.20
2022-10-05T04:17:40.846Z,99463.80
2022-10-05T04:20:54.167Z,99468.20
2022-10-05T04:24:11.150Z,99462.00
2022-10-05T04:27:23.499Z,99454.40
2022-10-05T04:30:35.141Z,99453.60
2022-10-05T04:33:44.527Z,99449.20
2022-10-05T04:37:02.057Z,99453.60
2022-10-05T04:40:30.195Z,99447.20
2022-10-05T04:43:53.809Z,99443.60
2022-10-05T04:47:23.895Z,99434.80
2022-10-05T04:50:46.282Z,99440.40
2022-10-05T04:54:06.835Z,99433.60
2022-10-05T04:57:23.307Z,99438.00
2022-10-05T05:00:40.312Z,99446.40
2022-10-05T05:04:11.376Z,99452.40
2022-10-05T05:07:37.808Z,99453.60
2022-10-05T05:11:16.192Z,99451.40
2022-10-05T05:14:53.369Z,99452.60
2022-10-05T05:18:39.251Z,99464.20
2022-10-05T05:22:01.752Z,99464.80
2022-10-05T05:25:33.224Z,99465.80
2022-10-05T05:28:52.303Z,99472.60
2022-10-05T05:32:14.410Z,99476.20
2022-10-05T05:35:52.507Z,99479.40
2022-10-05T05:39:29.111Z,99487.60
2022-10-05T05:42:51.822Z,99491.40
2022-10-05T05:46:08.188Z,99488.80
2022-10-05T05:49:25.432Z,99491.20
2022-10-05T05:52:41.228Z,99496.60
2022-10-05T05:55:54.296Z,99501.00
2022-10-05T05:59:12.814Z,99512.00
2022-10-05T06:02:28.195Z,99523.20
2022-10-05T06:05:43.816Z,99524.80
2022-10-05T06:08:56.196Z,99543.60
2022-10-05T06:12:12.612Z,99544.40
2022-10-05T06:15:33.968Z,99538.60
2022-10-05T06:18:49.409Z,99548.20
2022-10-05T06:22:03.752Z,99556.80
2022-10-05T06:25:30.217Z,99554.60
2022-10-05T06:28:38.412Z,99560.80
2022-10-05T06:32:11.381Z,99572.40
2022-10-05T06:35:36.522Z,99576.20
2022-10-05T06:39:39.087Z,99573.20
2022-10-05T06:43:27.948Z,99575.20
2022-10-05T06:46:42.261Z,99578.80
2022-10-05T06:50:05.160Z,99585.80
2022-10-05T06:53:29.574Z,99601.80
2022-10-05T06:56:46.235Z,99594.60
2022-10-05T07:00:04.028Z,99594.40
2022-10-05T07:03:27.821Z,99600.60
2022-10-05T07:06:44.963Z,99587.20
2022-10-05T07:10:13.911Z,99587.40
2022-10-05T07:13:48.867Z,99592.40
2022-10-05T07:17:23.164Z,99606.00
2022-10-05T07:20:45.639Z,99607.80
2022-10-05T07:24:12.820Z,99605.80
2022-10-05T07:27:25.423Z,99605.60
2022-10-05T07:30:36.686Z,99608.20
2022-10-05T07:33:55.888Z,99604.80
2022-10-05T07:37:35.928Z,99593.40
2022-10-05T07:45:33.745Z,99599.80
2022-10-05T07:49:14.925Z,99599.80
2022-10-05T07:52:34.951Z,99601.40
2022-10-05T07:55:51.655Z,99611.00
2022-10-05T07:59:08.022Z,99616.00
2022-10-05T08:02:28.441Z,99615.80
2022-10-05T08:05:42.269Z,99617.60
2022-10-05T08:09:01.229Z,99610.80
2022-10-05T08:12:25.718Z,99609.80
2022-10-05T08:15:44.320Z,99606.20
2022-10-05T08:19:03.869Z,99594.20
2022-10-05T08:22:21.685Z,99592.20
2022-10-05T08:25:41.691Z,99596.80
2022-10-05T08:29:02.701Z,99592.40
2022-10-05T08:32:20.152Z,99586.80
2022-10-05T08:35:38.138Z,99583.00
2022-10-05T08:38:47.297Z,99574.20
2022-10-05T08:42:49.350Z,99577.00
2022-10-05T08:46:45.319Z,99585.60
2022-10-05T08:50:23.690Z,99588.40
2022-10-05T08:54:08.895Z,99592.80
2022-10-05T08:57:46.643Z,99599.40
2022-10-05T09:01:08.057Z,99599.40
2022-10-05T09:04:37.226Z,99594.00
2022-10-05T09:08:21.489Z,99599.80
2022-10-05T09:11:39.103Z,99604.00
2022-10-05T09:15:25.549Z,99614.00
2022-10-05T09:19:22.896Z,99611.20
2022-10-05T09:22:53.020Z,99604.80
2022-10-05T09:26:15.611Z,99608.40
2022-10-05T09:30:07.400Z,99608.80
2022-10-05T09:33:55.945Z,99607.20
2022-10-05T09:37:38.068Z,99612.40
2022-10-05T09:41:30.025Z,99605.60
2022-10-05T09:45:21.935Z,99607.00
2022-10-05T09:49:11.461Z,99612.20
2022-10-05T09:52:52.200Z,99612.20
2022-10-05T09:56:22.651Z,99608.60
2022-10-05T10:00:16.516Z,99616.40
2022-10-05T10:04:36.530Z,99605.60
2022-10-05T10:08:26.889Z,99609.80
2022-10-05T10:12:09.044Z,99604.80
2022-10-05T10:16:03.184Z,99608.60
2022-10-05T10:19:35.399Z,99613.20
2022-10-05T10:23:23.839Z,99612.00
2022-10-05T10:27:17.750Z,99603.40
2022-10-05T10:30:58.041Z,99603.40
2022-10-05T10:34:40.601Z,99608.00
2022-10-05T10:38:34.261Z,99603.40
2022-10-05T10:42:37.280Z,99605.40
2022-10-05T10:46:01.495Z,99602.60
2022-10-05T10:49:38.012Z,99602.20
2022-10-05T10:53:10.684Z,99606.80
2022-10-05T10:56:48.690Z,99601.20
2022-10-05T11:00:34.928Z,99600.40
2022-10-05T11:04:29.443Z,99613.60
2022-10-05T11:08:22.105Z,99618.00
2022-10-05T11:12:22.114Z,99623.40
2022-10-05T11:16:18.738Z,99618.00
2022-10-05T11:20:04.718Z,99611.60
2022-10-05T11:24:15.723Z,99611.20
2022-10-05T11:27:59.389Z,99603.40
2022-10-05T11:32:05.544Z,99593.60
2022-10-05T11:36:05.962Z,99578.20
2022-10-05T11:39:45.071Z,99585.60
2022-10-05T11:43:34.498Z,99583.80
2022-10-05T11:46:56.318Z,99571.40
2022-10-05T11:50:20.132Z,99568.00
2022-10-05T11:53:36.773Z,99569.60
2022-10-05T11:56:54.696Z,99571.20
2022-10-05T12:00:15.932Z,99563.20
2022-10-05T12:03:48.513Z,99564.20
2022-10-05T12:07:16.370Z,99562.40
2022-10-05T12:10:38.101Z,99558.20
2022-10-05T12:13:55.454Z,99570.60
2022-10-05T12:17:13.969Z,99559.20
2022-10-05T12:20:30.043Z,99551.80
2022-10-05T12:23:48.009Z,99539.00
2022-10-05T12:27:04.665Z,99543.60
2022-10-05T12:30:26.623Z,99544.80
2022-10-05T12:33:43.301Z,99538.40
2022-10-05T12:37:06.231Z,99538.80
2022-10-05T12:40:29.820Z,99526.20
2022-10-05T12:43:55.186Z,99525.60
2022-10-05T12:47:21.316Z,99531.20
2022-10-05T12:50:42.220Z,99522.60
2022-10-05T12:54:01.714Z,99518.80
2022-10-05T12:57:28.063Z,99527.00
2022-10-05T13:00:41.019Z,99520.60
2022-10-05T13:04:00.636Z,99516.20
2022-10-05T13:07:24.628Z,99520.00
2022-10-05T13:10:40.831Z,99521.20
2022-10-05T13:14:09.747Z,99518.60
2022-10-05T13:17:27.007Z,99512.20
2022-10-05T13:20:45.183Z,99511.20
2022-10-05T13:24:06.584Z,99513.60
2022-10-05T13:27:23.636Z,99508.00
2022-10-05T13:30:32.947Z,99505.40
2022-10-05T13:34:15.917Z,99511.40
2022-10-05T13:37:35.589Z,99514.80
2022-10-05T13:40:54.114Z,99516.80
2022-10-05T13:44:20.376Z,99515.20
2022-10-05T13:47:41.555Z,99512.40
2022-10-05T13:51:05.390Z,99510.40
2022-10-05T13:54:25.166Z,99512.60
2022-10-05T13:57:58.968Z,99518.20
2022-10-05T14:01:18.330Z,99517.20
2022-10-05T14:04:29.827Z,99522.60
2022-10-05T14:07:50.663Z,99522.80
2022-10-05T14:10:59.151Z,99522.60
2022-10-05T14:14:18.932Z,99524.80
2022-10-05T14:17:46.432Z,99524.60
2022-10-05T14:21:17.227Z,99518.80
2022-10-05T14:24:43.743Z,99516.60
2022-10-05T14:28:03.499Z,99511.40
2022-10-05T14:31:28.889Z,99514.60
2022-10-05T14:34:45.071Z,99512.60
2022-10-05T14:38:00.356Z,99510.60
2022-10-05T14:41:21.882Z,99521.60
2022-10-05T14:44:35.934Z,99520.00
2022-10-05T14:47:53.759Z,99515.00
2022-10-05T14:51:03.613Z,99510.60
2022-10-05T14:54:31.226Z,99510.80
2022-10-05T14:57:52.151Z,99502.40
2022-10-05T15:01:14.672Z,99500.40
2022-10-05T15:04:43.054Z,99484.60
2022-10-05T15:07:58.409Z,99490.40
2022-10-05T15:11:15.201Z,99496.40
2022-10-05T15:14:26.611Z,99500.40
2022-10-05T15:17:47.737Z,99502.60
2022-10-05T15:21:06.273Z,99486.80
2022-10-05T15:24:22.601Z,99482.80
2022-10-05T15:27:47.584Z,99474.00
2022-10-05T15:31:03.302Z,99464.60
2022-10-05T15:34:23.261Z,99474.20
2022-10-05T15:37:42.334Z,99479.40
2022-10-05T15:41:05.265Z,99471.00
2022-10-05T15:44:26.184Z,99469.60
2022-10-05T15:47:53.889Z,99465.20
2022-10-05T15:51:15.531Z,99471.60
2022-10-05T15:55:06.200Z,99472.00
2022-10-05T15:58:41.448Z,99475.60
2022-10-05T16:02:01.177Z,99485.60
2022-10-05T16:05:42.927Z,99490.60
2022-10-05T16:09:11.931Z,99498.20
2022-10-05T16:12:36.730Z,99491.40
2022-10-05T16:15:50.698Z,99493.60
2022-10-05T16:19:11.286Z,99492.20
2022-10-05T16:22:27.596Z,99496.00
2022-10-05T16:25:55.156Z,99499.80
2022-10-05T16:29:12.576Z,99498.40
2022-10-05T16:32:26.522Z,99492.20
2022-10-05T16:35:45.997Z,99497.20
2022-10-05T16:39:06.721Z,99497.60
2022-10-05T16:42:43.375Z,99501.40
2022-10-05T16:46:12.682Z,99509.00
2022-10-05T16:49:40.259Z,99514.40
2022-10-05T16:52:58.201Z,99518.60
2022-10-05T16:56:13.063Z,99522.60
2022-10-05T17:00:16.111Z,99517.60
2022-10-05T17:03:41.919Z,99523.60
2022-10-05T17:07:24.634Z,99529.40
2022-10-05T17:11:04.479Z,99527.40
2022-10-05T17:14:29.072Z,99532.80
2022-10-05T17:18:00.438Z,99537.40
2022-10-05T17:21:15.837Z,99543.60
2022-10-05T17:24:41.930Z,99537.00
2022-10-05T17:28:00.625Z,99538.00
2022-10-05T17:31:20.153Z,99537.00
2022-10-05T17:34:34.904Z,99543.60
2022-10-05T17:37:47.449Z,99536.60
2022-10-05T17:41:20.224Z,99540.80
2022-10-05T17:44:30.992Z,99539.20
2022-10-05T17:48:00.227Z,99543.20
2022-10-05T17:51:58.410Z,99550.40
2022-10-05T17:55:47.181Z,99546.00
2022-10-05T17:59:04.582Z,99546.20
2022-10-05T18:02:26.957Z,99551.20
2022-10-05T18:05:35.561Z,99548.20
2022-10-05T18:08:43.886Z,99541.60
2022-10-05T18:12:26.618Z,99546.60
2022-10-05T18:15:50.350Z,99539.40
2022-10-05T18:19:03.318Z,99541.40
2022-10-05T18:22:32.400Z,99535.80
2022-10-05T18:25:50.533Z,99536.40
2022-10-05T18:29:37.574Z,99535.40
2022-10-05T18:33:22.402Z,99538.80
2022-10-05T18:37:09.615Z,99534.40
2022-10-05T18:40:50.018Z,99540.60
2022-10-05T18:44:27.082Z,99537.60
2022-10-05T18:47:52.553Z,99534.00
2022-10-05T18:51:15.962Z,99533.20
2022-10-05T18:54:51.755Z,99534.60
2022-10-05T18:58:16.225Z,99538.00
2022-10-05T19:01:51.280Z,99539.20
2022-10-05T19:05:46.343Z,99539.20
2022-10-05T19:09:04.107Z,99538.40
2022-10-05T19:12:27.199Z,99539.20
2022-10-05T19:15:48.721Z,99535.60
2022-10-05T19:19:29.451Z,99539.00
2022-10-05T19:23:03.517Z,99540.60
2022-10-05T19:26:26.003Z,99544.40
2022-10-05T19:30:00.385Z,99548.00
2022-10-05T19:33:38.948Z,99549.20
2022-10-05T19:37:05.035Z,99545.20
2022-10-05T19:40:24.650Z,99543.20
2022-10-05T19:43:54.736Z,99547.40
2022-10-05T19:47:17.613Z,99552.00
2022-10-05T19:50:33.093Z,99555.80
2022-10-05T19:53:50.280Z,99563.40
2022-10-05T19:57:00.132Z,99571.00
2022-10-05T20:00:16.908Z,99566.60
2022-10-05T20:03:30.629Z,99571.40
2022-10-05T20:06:39.756Z,99580.80
2022-10-05T20:10:00.427Z,99582.00
2022-10-05T20:13:20.070Z,99581.80
2022-10-05T20:16:52.395Z,99585.60
2022-10-05T20:20:38.496Z,99582.40
2022-10-05T20:23:46.508Z,99581.40
2022-10-05T20:27:05.199Z,99586.60
2022-10-05T20:30:17.395Z,99581.40
2022-10-05T20:33:28.341Z,99584.20
2022-10-05T20:36:36.042Z,99584.60
2022-10-05T20:39:45.578Z,99593.20
2022-10-05T20:42:53.550Z,99594.40
2022-10-05T20:46:02.260Z,99593.20
2022-10-05T20:49:11.723Z,99589.00
2022-10-05T20:52:19.593Z,99595.20
2022-10-05T20:55:32.043Z,99586.80
2022-10-05T20:58:39.972Z,99582.60
2022-10-05T21:01:49.224Z,99588.00
2022-10-05T21:04:57.197Z,99589.60
2022-10-05T21:08:07.308Z,99582.40
2022-10-05T21:11:15.786Z,99580.00
2022-10-05T21:14:24.240Z,99583.00
2022-10-05T21:17:32.313Z,99582.60
2022-10-05T21:20:40.264Z,99579.80
2022-10-05T21:23:51.448Z,99580.80
2022-10-05T21:26:59.488Z,99579.80
2022-10-05T21:30:08.694Z,99577.60
2022-10-05T21:33:16.493Z,99584.60
2022-10-05T21:36:25.369Z,99582.20
2022-10-05T21:39:33.675Z,99579.00
2022-10-05T21:42:41.809Z,99580.00
2022-10-05T21:45:50.360Z,99578.00
2022-10-05T21:48:58.952Z,99580.40
2022-10-05T21:52:08.431Z,99579.80
2022-10-05T21:55:16.159Z,99575.00
2022-10-05T21:58:28.272Z,99579.20
2022-10-05T22:01:37.060Z,99578.60
2022-10-05T22:04:44.796Z,99578.20
2022-10-05T22:07:54.665Z,99573.40
2022-10-05T22:11:09.926Z,99572.60
2022-10-05T22:14:19.297Z,99566.60
2022-10-05T22:17:31.424Z,99564.60
2022-10-05T22:20:39.677Z,99556.80
2022-10-05T22:23:49.602Z,99552.80
2022-10-05T22:26:57.719Z,99559.60
2022-10-05T22:30:06.691Z,99553.60
2022-10-05T22:33:14.570Z,99547.20
2022-10-05T22:36:23.191Z,99552.40
2022-10-05T22:39:31.285Z,99551.00
2022-10-05T22:42:41.026Z,99540.00
2022-10-05T22:45:47.927Z,99538.00
2022-10-05T22:48:55.945Z,99535.80
2022-10-05T22:52:03.769Z,99533.60
2022-10-05T22:59:47.371Z,99537.20
2022-10-05T23:02:55.544Z,99539.20
2022-10-05T23:06:05.985Z,99536.40
2022-10-05T23:09:13.837Z,99528.00
2022-10-05T23:12:22.216Z,99525.40
2022-10-05T23:15:30.152Z,99530.00
2022-10-05T23:18:38.300Z,99525.60
2022-10-05T23:21:46.754Z,99520.40
2022-10-05T23:24:55.703Z,99520.80
2022-10-05T23:28:04.579Z,99521.20
2022-10-05T23:31:12.987Z,99519.40
2022-10-05T23:34:20.835Z,99521.00
2022-10-05T23:37:29.542Z,99519.80
2022-10-05T23:40:37.487Z,99530.40
2022-10-05T23:43:45.990Z,99531.00
2022-10-05T23:46:53.768Z,99524.00
2022-10-05T23:50:01.987Z,99529.40
2022-10-05T23:53:09.819Z,99522.40
2022-10-05T23:56:17.611Z,99525.00
2022-10-05T23:59:25.522Z,99529.40
